Time;durP1;ratioP1;P1;durP2;ratioP2;P2;SDS_P1;SDS_P2;PMS_P1;PMS_P2;Temp;Humidity;BMP_temperature;BMP_pressure;BME280_temperature;BME280_humidity;BME280_pressure;Samples;Min_cycle;Max_cycle;Signal;HPM_P1;HPM_P2
2023/07/23 00:01:31;;;;;;;10.90;5.90;;;;;;;;;;5035427;28;20057;-77
2023/07/23 00:03:57;;;;;;;9.77;6.10;;;;;;;;;;5035238;28;20050;-78
2023/07/23 00:06:23;;;;;;;10.32;5.80;;;;;;;;;;5034551;28;20042;-78
2023/07/23 00:08:49;;;;;;;10.30;5.68;;;;;;;;;;5042945;28;20453;-78
2023/07/23 00:11:15;;;;;;;10.82;6.28;;;;;;;;;;5034992;28;20053;-78
2023/07/23 00:13:41;;;;;;;10.43;6.40;;;;;;;;;;5034980;28;20049;-78
2023/07/23 00:16:08;;;;;;;13.80;6.22;;;;;;;;;;5035067;28;20038;-77
2023/07/23 00:18:34;;;;;;;11.05;6.38;;;;;;;;;;5034432;28;20045;-78
2023/07/23 00:21:00;;;;;;;10.63;7.05;;;;;;;;;;5034426;28;20076;-76
2023/07/23 00:23:26;;;;;;;13.48;7.43;;;;;;;;;;5034676;28;20049;-77
2023/07/23 00:25:54;;;;;;;12.23;6.70;;;;;;;;;;5036653;28;20053;-77
2023/07/23 00:28:20;;;;;;;11.63;7.20;;;;;;;;;;5054231;28;20391;-77
2023/07/23 00:30:46;;;;;;;14.18;7.60;;;;;;;;;;5054309;28;20102;-77
2023/07/23 00:33:12;;;;;;;13.15;6.97;;;;;;;;;;5054463;28;20054;-77
2023/07/23 00:35:38;;;;;;;13.43;7.25;;;;;;;;;;5054357;28;20074;-77
2023/07/23 00:38:04;;;;;;;14.10;8.15;;;;;;;;;;5053178;28;20413;-77
2023/07/23 00:40:31;;;;;;;12.07;7.45;;;;;;;;;;5053472;28;20103;-77
2023/07/23 00:42:57;;;;;;;11.90;7.03;;;;;;;;;;5054314;28;20089;-77
2023/07/23 00:45:24;;;;;;;14.73;7.80;;;;;;;;;;5054034;28;20057;-77
2023/07/23 00:47:50;;;;;;;13.80;8.45;;;;;;;;;;5055883;28;20048;-77
2023/07/23 00:50:16;;;;;;;11.90;7.78;;;;;;;;;;5058273;28;20052;-77
2023/07/23 00:52:43;;;;;;;20.80;9.35;;;;;;;;;;5057822;28;20111;-76
2023/07/23 00:55:10;;;;;;;12.27;7.72;;;;;;;;;;5057071;28;20383;-77
2023/07/23 00:57:36;;;;;;;12.27;8.38;;;;;;;;;;5057676;28;20045;-77
2023/07/23 01:00:04;;;;;;;12.27;8.73;;;;;;;;;;5057823;28;20546;-77
2023/07/23 01:02:30;;;;;;;13.15;7.82;;;;;;;;;;5056016;28;20526;-77
2023/07/23 01:04:56;;;;;;;13.73;8.20;;;;;;;;;;5057897;28;20071;-77
2023/07/23 01:07:23;;;;;;;12.98;8.13;;;;;;;;;;5046287;28;20503;-77
2023/07/23 01:09:50;;;;;;;14.00;8.50;;;;;;;;;;5038351;28;20114;-78
2023/07/23 01:12:17;;;;;;;13.55;8.20;;;;;;;;;;5057179;28;20045;-77
2023/07/23 01:14:43;;;;;;;13.13;8.32;;;;;;;;;;5040417;28;20514;-77
2023/07/23 01:17:10;;;;;;;12.88;8.20;;;;;;;;;;5058092;28;20059;-77
2023/07/23 01:19:39;;;;;;;12.80;8.32;;;;;;;;;;5057629;28;20044;-77
2023/07/23 01:22:05;;;;;;;17.30;8.70;;;;;;;;;;5038730;28;20045;-76
2023/07/23 01:24:34;;;;;;;13.50;8.55;;;;;;;;;;5057078;28;20040;-77
2023/07/23 01:27:01;;;;;;;13.35;8.35;;;;;;;;;;5057113;28;20449;-77
2023/07/23 01:29:28;;;;;;;12.05;7.82;;;;;;;;;;5055302;28;20067;-77
2023/07/23 01:31:54;;;;;;;14.85;8.48;;;;;;;;;;5036279;28;20097;-77
2023/07/23 01:34:20;;;;;;;13.80;8.65;;;;;;;;;;5056603;28;20487;-77
2023/07/23 01:36:47;;;;;;;16.02;8.65;;;;;;;;;;5056525;28;20041;-78
2023/07/23 01:39:13;;;;;;;16.65;7.95;;;;;;;;;;5055618;28;20380;-78
2023/07/23 01:41:39;;;;;;;14.55;8.18;;;;;;;;;;5056198;28;20047;-78
2023/07/23 01:44:06;;;;;;;14.43;8.23;;;;;;;;;;5055727;28;20498;-78
2023/07/23 01:46:32;;;;;;;13.63;8.20;;;;;;;;;;5056013;28;20053;-78
2023/07/23 01:48:58;;;;;;;15.43;8.40;;;;;;;;;;5056133;28;20095;-78
2023/07/23 01:51:24;;;;;;;13.13;8.35;;;;;;;;;;5038228;28;20049;-78
2023/07/23 01:53:50;;;;;;;14.15;8.38;;;;;;;;;;5054998;28;20041;-78
2023/07/23 01:56:16;;;;;;;11.55;8.43;;;;;;;;;;5055609;28;20041;-78
2023/07/23 01:58:42;;;;;;;11.43;8.48;;;;;;;;;;5053548;28;20518;-78
2023/07/23 02:01:08;;;;;;;15.02;8.75;;;;;;;;;;5052969;28;20048;-78
2023/07/23 02:03:34;;;;;;;14.43;7.82;;;;;;;;;;5054654;28;20084;-78
2023/07/23 02:06:02;;;;;;;13.20;8.35;;;;;;;;;;5055330;28;20406;-78
2023/07/23 02:08:28;;;;;;;13.88;8.98;;;;;;;;;;5055446;28;20049;-78
2023/07/23 02:10:59;;;;;;;13.40;8.63;;;;;;;;;;5054299;28;20040;-78
2023/07/23 02:13:25;;;;;;;14.55;8.63;;;;;;;;;;5053805;28;20041;-78
2023/07/23 02:15:51;;;;;;;13.57;8.65;;;;;;;;;;5055339;28;20052;-78
2023/07/23 02:18:17;;;;;;;12.45;7.75;;;;;;;;;;5055284;28;20453;-78
2023/07/23 02:20:43;;;;;;;13.45;8.13;;;;;;;;;;5055339;28;20055;-78
2023/07/23 02:23:09;;;;;;;13.40;8.05;;;;;;;;;;5055454;28;20087;-78
2023/07/23 02:25:39;;;;;;;14.85;8.05;;;;;;;;;;5054354;28;20041;-78
2023/07/23 02:28:06;;;;;;;13.33;8.80;;;;;;;;;;5040768;28;20047;-78
2023/07/23 02:30:32;;;;;;;10.90;7.38;;;;;;;;;;5055221;28;20042;-79
2023/07/23 02:32:58;;;;;;;12.65;8.20;;;;;;;;;;5054503;28;20525;-78
2023/07/23 02:35:24;;;;;;;11.70;8.48;;;;;;;;;;5037621;28;20059;-78
2023/07/23 02:37:50;;;;;;;13.30;8.27;;;;;;;;;;5055575;28;20047;-78
2023/07/23 02:40:16;;;;;;;12.50;8.70;;;;;;;;;;5054687;28;20043;-78
2023/07/23 02:42:43;;;;;;;14.93;8.65;;;;;;;;;;5055621;28;20055;-77
2023/07/23 02:45:09;;;;;;;12.68;8.38;;;;;;;;;;5055527;28;20061;-78
2023/07/23 02:47:35;;;;;;;15.10;8.73;;;;;;;;;;5054161;28;20434;-78
2023/07/23 02:50:01;;;;;;;13.02;9.02;;;;;;;;;;5055635;28;20037;-78
2023/07/23 02:52:27;;;;;;;15.93;9.95;;;;;;;;;;5055769;28;20045;-78
2023/07/23 02:54:53;;;;;;;13.88;10.10;;;;;;;;;;5054368;28;20052;-77
2023/07/23 02:57:19;;;;;;;15.13;9.98;;;;;;;;;;5055419;28;20521;-77
2023/07/23 02:59:46;;;;;;;14.45;9.25;;;;;;;;;;5054604;28;20049;-78
2023/07/23 03:02:14;;;;;;;13.85;9.95;;;;;;;;;;5038106;28;20040;-77
2023/07/23 03:04:41;;;;;;;15.50;9.45;;;;;;;;;;5055481;28;20099;-77
2023/07/23 03:07:09;;;;;;;15.10;9.90;;;;;;;;;;5055613;28;20080;-77
2023/07/23 03:09:36;;;;;;;17.38;10.15;;;;;;;;;;5053608;28;20053;-77
2023/07/23 03:12:02;;;;;;;13.77;9.98;;;;;;;;;;5049362;28;20041;-77
2023/07/23 03:14:29;;;;;;;15.73;10.80;;;;;;;;;;5055431;28;20041;-77
2023/07/23 03:16:55;;;;;;;15.05;10.88;;;;;;;;;;5055327;28;20045;-77
2023/07/23 03:19:21;;;;;;;18.55;10.40;;;;;;;;;;5037354;28;20044;-76
2023/07/23 03:21:47;;;;;;;16.35;10.35;;;;;;;;;;5055233;28;20421;-78
2023/07/23 03:24:13;;;;;;;14.38;9.82;;;;;;;;;;5053791;28;20052;-77
2023/07/23 03:26:39;;;;;;;14.15;9.93;;;;;;;;;;5054823;28;20171;-77
2023/07/23 03:29:05;;;;;;;17.50;9.88;;;;;;;;;;5053745;28;20045;-77
2023/07/23 03:31:32;;;;;;;13.40;10.30;;;;;;;;;;5053936;28;20442;-77
2023/07/23 03:33:58;;;;;;;18.58;11.48;;;;;;;;;;5054304;28;20056;-77
2023/07/23 03:36:24;;;;;;;14.73;10.38;;;;;;;;;;5053161;28;20053;-77
2023/07/23 03:38:50;;;;;;;14.82;10.35;;;;;;;;;;5054288;28;20041;-76
2023/07/23 03:41:16;;;;;;;14.52;9.77;;;;;;;;;;5054194;28;20052;-77
2023/07/23 03:43:42;;;;;;;16.70;10.27;;;;;;;;;;5052767;28;20045;-77
2023/07/23 03:46:09;;;;;;;14.60;10.27;;;;;;;;;;5052964;28;20094;-77
2023/07/23 03:48:35;;;;;;;16.05;10.93;;;;;;;;;;5052546;28;20041;-77
2023/07/23 03:51:01;;;;;;;15.90;10.02;;;;;;;;;;5052470;28;20049;-78
2023/07/23 03:53:27;;;;;;;14.77;10.27;;;;;;;;;;5053225;28;20080;-77
2023/07/23 03:55:53;;;;;;;14.15;10.20;;;;;;;;;;5052993;28;20480;-77
2023/07/23 03:58:19;;;;;;;16.50;10.98;;;;;;;;;;5052200;28;20095;-77
2023/07/23 04:00:45;;;;;;;16.20;10.68;;;;;;;;;;5053133;28;20078;-78
2023/07/23 04:03:11;;;;;;;14.85;10.80;;;;;;;;;;5034863;28;20041;-77
2023/07/23 04:05:37;;;;;;;13.82;10.00;;;;;;;;;;5052889;28;20072;-77
2023/07/23 04:08:03;;;;;;;13.57;9.10;;;;;;;;;;5051575;28;20041;-77
2023/07/23 04:10:29;;;;;;;13.65;9.52;;;;;;;;;;5053172;28;20037;-77
2023/07/23 04:12:55;;;;;;;15.43;9.75;;;;;;;;;;5051979;28;20053;-77
2023/07/23 04:15:22;;;;;;;17.67;10.25;;;;;;;;;;5052729;28;20506;-77
2023/07/23 04:17:48;;;;;;;13.20;10.07;;;;;;;;;;5052745;28;20090;-77
2023/07/23 04:20:14;;;;;;;12.90;9.50;;;;;;;;;;5052540;28;20045;-77
2023/07/23 04:22:40;;;;;;;13.93;10.43;;;;;;;;;;5034204;28;20522;-77
2023/07/23 04:25:06;;;;;;;13.88;9.77;;;;;;;;;;5052736;28;20088;-77
2023/07/23 04:27:32;;;;;;;16.00;10.00;;;;;;;;;;5051818;28;20049;-77
2023/07/23 04:29:58;;;;;;;12.43;9.73;;;;;;;;;;5052787;28;20057;-77
2023/07/23 04:32:24;;;;;;;15.60;9.75;;;;;;;;;;5052703;28;20495;-77
2023/07/23 04:34:50;;;;;;;15.07;10.32;;;;;;;;;;5052884;28;20049;-77
2023/07/23 04:37:17;;;;;;;14.82;10.02;;;;;;;;;;5051657;28;20410;-77
2023/07/23 04:39:43;;;;;;;16.27;10.60;;;;;;;;;;5052945;28;20098;-78
2023/07/23 04:42:09;;;;;;;17.77;10.23;;;;;;;;;;5052813;28;20398;-77
2023/07/23 04:44:35;;;;;;;15.75;9.93;;;;;;;;;;5053035;28;20106;-77
2023/07/23 04:47:01;;;;;;;16.05;9.88;;;;;;;;;;5052964;28;20114;-77
2023/07/23 04:49:27;;;;;;;15.63;10.38;;;;;;;;;;5035246;28;20045;-77
2023/07/23 04:51:53;;;;;;;14.50;10.73;;;;;;;;;;5052805;28;20125;-77
2023/07/23 04:54:19;;;;;;;14.88;10.02;;;;;;;;;;5051927;28;20080;-77
2023/07/23 04:56:45;;;;;;;16.10;10.65;;;;;;;;;;5051177;28;20095;-77
2023/07/23 04:59:11;;;;;;;13.88;10.38;;;;;;;;;;5033505;28;20040;-78
2023/07/23 05:01:37;;;;;;;14.52;10.23;;;;;;;;;;5033610;28;20488;-77
2023/07/23 05:04:04;;;;;;;14.32;10.63;;;;;;;;;;5053157;28;20172;-77
2023/07/23 05:06:30;;;;;;;17.88;11.00;;;;;;;;;;5052561;28;20044;-77
2023/07/23 05:08:56;;;;;;;15.23;10.75;;;;;;;;;;5034999;28;20060;-78
2023/07/23 05:11:22;;;;;;;18.52;10.70;;;;;;;;;;5035085;28;20143;-78
2023/07/23 05:13:48;;;;;;;15.32;9.85;;;;;;;;;;5045350;28;20496;-78
2023/07/23 05:16:14;;;;;;;14.80;10.18;;;;;;;;;;5033258;28;20096;-78
2023/07/23 05:18:40;;;;;;;14.35;10.35;;;;;;;;;;5032738;28;20152;-78
2023/07/23 05:21:06;;;;;;;16.33;10.13;;;;;;;;;;5032049;28;20057;-78
2023/07/23 05:23:32;;;;;;;16.15;9.85;;;;;;;;;;5032308;28;20534;-78
2023/07/23 05:25:58;;;;;;;15.50;9.55;;;;;;;;;;5037659;28;20052;-78
2023/07/23 05:28:24;;;;;;;14.75;10.02;;;;;;;;;;5051740;28;20056;-78
2023/07/23 05:30:50;;;;;;;13.40;9.65;;;;;;;;;;5052169;28;20120;-78
2023/07/23 05:33:16;;;;;;;15.52;10.77;;;;;;;;;;5052612;28;20372;-78
2023/07/23 05:35:43;;;;;;;16.13;10.77;;;;;;;;;;5055594;28;20380;-78
2023/07/23 05:38:09;;;;;;;14.57;10.45;;;;;;;;;;5056212;28;20430;-78
2023/07/23 05:40:37;;;;;;;15.27;10.35;;;;;;;;;;5038107;28;20056;-78
2023/07/23 05:43:08;;;;;;;17.98;10.20;;;;;;;;;;5055215;28;20067;-78
2023/07/23 05:45:35;;;;;;;18.55;9.63;;;;;;;;;;5055437;28;20067;-78
2023/07/23 05:48:01;;;;;;;15.95;10.50;;;;;;;;;;5055508;28;20041;-77
2023/07/23 05:50:27;;;;;;;17.17;10.60;;;;;;;;;;5055868;28;20119;-78
2023/07/23 05:52:53;;;;;;;15.55;9.55;;;;;;;;;;5038190;28;20057;-78
2023/07/23 05:55:19;;;;;;;14.88;9.98;;;;;;;;;;5055162;28;20379;-78
2023/07/23 05:57:45;;;;;;;13.82;10.10;;;;;;;;;;5055091;28;20117;-79
2023/07/23 06:00:11;;;;;;;15.18;10.50;;;;;;;;;;5055656;28;20067;-78
2023/07/23 06:02:37;;;;;;;17.92;10.25;;;;;;;;;;5051743;28;20062;-78
2023/07/23 06:05:04;;;;;;;17.50;10.70;;;;;;;;;;5039489;28;20124;-78
2023/07/23 06:07:30;;;;;;;14.32;10.20;;;;;;;;;;5035909;28;20081;-78
2023/07/23 06:09:56;;;;;;;17.83;11.18;;;;;;;;;;5036256;28;20410;-78
2023/07/23 06:12:22;;;;;;;15.85;10.40;;;;;;;;;;5019919;28;20041;-78
2023/07/23 06:14:48;;;;;;;13.18;10.60;;;;;;;;;;5056090;28;20095;-78
2023/07/23 06:17:14;;;;;;;14.13;9.73;;;;;;;;;;5055352;28;20041;-78
2023/07/23 06:19:40;;;;;;;16.17;10.25;;;;;;;;;;5056393;28;20068;-78
2023/07/23 06:22:06;;;;;;;15.43;10.10;;;;;;;;;;5055537;28;20049;-78
2023/07/23 06:24:32;;;;;;;13.98;9.90;;;;;;;;;;5052892;28;20037;-78
2023/07/23 06:26:58;;;;;;;14.38;10.20;;;;;;;;;;5037236;28;20386;-79
2023/07/23 06:29:26;;;;;;;14.65;10.77;;;;;;;;;;5054940;28;20049;-79
2023/07/23 06:31:52;;;;;;;14.98;10.73;;;;;;;;;;5054443;28;20064;-79
2023/07/23 06:34:19;;;;;;;16.58;10.35;;;;;;;;;;5055906;28;20140;-79
2023/07/23 06:36:45;;;;;;;14.50;9.43;;;;;;;;;;5053400;28;20056;-78
2023/07/23 06:39:12;;;;;;;13.55;10.15;;;;;;;;;;5049345;28;20037;-76
2023/07/23 06:41:38;;;;;;;16.27;10.23;;;;;;;;;;5054631;28;20144;-78
2023/07/23 06:44:04;;;;;;;16.25;10.75;;;;;;;;;;5054161;28;20049;-78
2023/07/23 06:46:30;;;;;;;13.27;10.07;;;;;;;;;;5053958;28;20045;-78
2023/07/23 06:48:56;;;;;;;13.00;9.88;;;;;;;;;;5054844;28;20098;-78
2023/07/23 06:51:22;;;;;;;12.23;9.18;;;;;;;;;;5036847;28;20080;-78
2023/07/23 06:53:49;;;;;;;16.50;10.52;;;;;;;;;;5022359;28;20570;-77
2023/07/23 06:56:16;;;;;;;14.45;9.25;;;;;;;;;;5034497;28;20041;-77
2023/07/23 06:58:42;;;;;;;14.20;9.30;;;;;;;;;;5034172;28;20049;-78
2023/07/23 07:01:09;;;;;;;14.85;10.18;;;;;;;;;;5034069;28;20565;-78
2023/07/23 07:03:35;;;;;;;14.32;8.85;;;;;;;;;;5020527;28;20138;-78
2023/07/23 07:06:02;;;;;;;15.60;9.60;;;;;;;;;;5035641;28;20064;-79
2023/07/23 07:08:29;;;;;;;15.60;8.88;;;;;;;;;;5033474;28;20082;-78
2023/07/23 07:10:58;;;;;;;13.25;9.18;;;;;;;;;;5038392;28;20111;-78
2023/07/23 07:13:25;;;;;;;14.18;9.70;;;;;;;;;;5054164;28;20534;-78
2023/07/23 07:15:52;;;;;;;15.60;9.20;;;;;;;;;;5054239;28;20045;-78
2023/07/23 07:18:18;;;;;;;12.82;8.82;;;;;;;;;;5054316;28;20075;-78
2023/07/23 07:20:44;;;;;;;16.52;9.85;;;;;;;;;;5036409;28;20048;-78
2023/07/23 07:23:11;;;;;;;13.52;8.57;;;;;;;;;;5049565;28;20108;-78
2023/07/23 07:25:37;;;;;;;14.32;9.52;;;;;;;;;;5033216;28;20053;-78
2023/07/23 07:28:03;;;;;;;15.43;9.48;;;;;;;;;;5033669;28;20135;-78
2023/07/23 07:30:29;;;;;;;15.27;9.60;;;;;;;;;;5052038;28;20060;-78
2023/07/23 07:32:55;;;;;;;12.75;8.40;;;;;;;;;;5019761;28;20056;-78
2023/07/23 07:35:21;;;;;;;14.38;9.15;;;;;;;;;;5053711;28;20492;-78
2023/07/23 07:37:47;;;;;;;16.25;9.23;;;;;;;;;;5049487;28;20049;-78
2023/07/23 07:40:13;;;;;;;13.00;9.23;;;;;;;;;;5050161;28;20123;-78
2023/07/23 07:42:39;;;;;;;13.00;9.32;;;;;;;;;;5053408;28;20480;-78
2023/07/23 07:45:06;;;;;;;14.90;9.82;;;;;;;;;;5053955;28;20053;-78
2023/07/23 07:47:32;;;;;;;14.68;9.43;;;;;;;;;;5053747;28;20053;-78
2023/07/23 07:49:58;;;;;;;16.88;9.55;;;;;;;;;;5052752;28;20174;-78
2023/07/23 07:52:24;;;;;;;15.05;9.60;;;;;;;;;;5052315;28;20141;-78
2023/07/23 07:54:50;;;;;;;14.35;9.75;;;;;;;;;;5035619;28;20047;-78
2023/07/23 07:57:16;;;;;;;15.45;9.43;;;;;;;;;;5052804;28;20415;-78
2023/07/23 07:59:43;;;;;;;17.50;9.98;;;;;;;;;;5053754;28;20064;-78
2023/07/23 08:02:10;;;;;;;14.65;9.40;;;;;;;;;;5054222;28;20468;-78
2023/07/23 08:04:36;;;;;;;16.55;9.90;;;;;;;;;;5035344;28;20041;-78
2023/07/23 08:07:02;;;;;;;15.13;10.13;;;;;;;;;;5052355;28;20052;-78
2023/07/23 08:09:29;;;;;;;14.95;9.80;;;;;;;;;;5054646;28;20053;-78
2023/07/23 08:11:55;;;;;;;15.48;9.85;;;;;;;;;;5053514;28;20543;-78
2023/07/23 08:14:22;;;;;;;15.40;9.98;;;;;;;;;;5018761;28;20118;-78
2023/07/23 08:16:52;;;;;;;14.38;9.30;;;;;;;;;;5052846;28;20124;-79
2023/07/23 08:19:18;;;;;;;13.07;9.18;;;;;;;;;;5052742;28;20444;-78
2023/07/23 08:21:44;;;;;;;12.45;9.38;;;;;;;;;;5050605;28;20067;-78
2023/07/23 08:24:11;;;;;;;12.75;9.30;;;;;;;;;;5033138;28;20407;-78
2023/07/23 08:26:40;;;;;;;14.35;9.23;;;;;;;;;;5032885;28;20048;-79
2023/07/23 08:29:08;;;;;;;14.07;9.00;;;;;;;;;;5032982;28;20057;-79
2023/07/23 08:31:35;;;;;;;12.70;8.85;;;;;;;;;;5032910;28;20120;-79
2023/07/23 08:34:04;;;;;;;14.02;9.95;;;;;;;;;;5033269;28;20049;-79
2023/07/23 08:36:31;;;;;;;12.63;9.35;;;;;;;;;;5031808;28;20041;-79
2023/07/23 08:38:57;;;;;;;12.98;8.75;;;;;;;;;;5052871;28;20041;-78
2023/07/23 08:41:24;;;;;;;11.25;7.97;;;;;;;;;;5052980;28;20106;-79
2023/07/23 08:43:53;;;;;;;10.85;8.05;;;;;;;;;;5052363;28;20041;-79
2023/07/23 08:46:19;;;;;;;13.20;7.82;;;;;;;;;;5053789;28;20137;-79
2023/07/23 08:48:45;;;;;;;11.05;7.32;;;;;;;;;;5054158;28;20048;-79
2023/07/23 08:51:11;;;;;;;11.80;7.53;;;;;;;;;;5053137;28;20057;-78
2023/07/23 08:53:37;;;;;;;12.50;8.88;;;;;;;;;;5037849;28;20053;-79
2023/07/23 08:56:04;;;;;;;13.07;7.75;;;;;;;;;;5058166;28;20049;-78
2023/07/23 08:58:30;;;;;;;13.68;7.80;;;;;;;;;;5054323;28;20092;-79
2023/07/23 09:00:56;;;;;;;12.23;7.70;;;;;;;;;;5056376;28;20055;-79
2023/07/23 09:03:22;;;;;;;12.95;7.60;;;;;;;;;;5057738;28;20081;-79
2023/07/23 09:05:48;;;;;;;13.30;7.75;;;;;;;;;;5055482;28;20041;-76
2023/07/23 09:08:14;;;;;;;11.10;7.40;;;;;;;;;;5053352;28;20460;-78
2023/07/23 09:10:40;;;;;;;11.23;7.30;;;;;;;;;;5057311;28;20086;-78
2023/07/23 09:13:16;;;;;;;12.38;7.45;;;;;;;;;;5057761;28;20132;-78
2023/07/23 09:15:43;;;;;;;11.73;7.72;;;;;;;;;;5057892;28;20060;-79
2023/07/23 09:18:09;;;;;;;11.52;7.68;;;;;;;;;;5057107;28;20079;-78
2023/07/23 09:20:35;;;;;;;10.07;6.93;;;;;;;;;;5058036;28;20067;-79
2023/07/23 09:23:06;;;;;;;10.20;6.78;;;;;;;;;;5058203;28;20045;-78
2023/07/23 09:25:32;;;;;;;10.77;6.93;;;;;;;;;;5057339;28;20041;-78
2023/07/23 09:27:58;;;;;;;10.98;7.25;;;;;;;;;;5056722;28;20095;-78
2023/07/23 09:30:25;;;;;;;11.27;7.63;;;;;;;;;;5056422;28;20049;-79
2023/07/23 09:33:07;;;;;;;11.20;6.38;;;;;;;;;;5054206;28;20047;-78
2023/07/23 09:35:33;;;;;;;12.40;6.57;;;;;;;;;;5056506;28;20045;-78
2023/07/23 09:38:00;;;;;;;10.50;6.97;;;;;;;;;;5056609;28;20049;-78
2023/07/23 09:40:33;;;;;;;10.52;7.40;;;;;;;;;;5038518;28;20072;-78
2023/07/23 09:43:00;;;;;;;10.77;7.38;;;;;;;;;;5059294;28;20045;-79
2023/07/23 09:45:26;;;;;;;11.00;7.38;;;;;;;;;;5061893;28;20053;-79
2023/07/23 09:47:53;;;;;;;10.45;6.32;;;;;;;;;;5044142;28;20062;-79
2023/07/23 09:50:20;;;;;;;10.38;6.32;;;;;;;;;;5059092;28;20124;-77
2023/07/23 09:52:50;;;;;;;11.27;7.63;;;;;;;;;;5037012;28;20123;-77
2023/07/23 09:55:17;;;;;;;10.25;7.00;;;;;;;;;;5056357;28;20045;-78
2023/07/23 09:57:45;;;;;;;9.88;6.68;;;;;;;;;;5056211;28;20095;-78
2023/07/23 10:00:11;;;;;;;9.60;6.80;;;;;;;;;;5056479;28;20056;-78
2023/07/23 10:02:39;;;;;;;11.38;6.68;;;;;;;;;;5056013;28;20044;-79
2023/07/23 10:05:05;;;;;;;10.40;6.63;;;;;;;;;;5057935;28;20119;-78
2023/07/23 10:07:33;;;;;;;8.52;6.15;;;;;;;;;;5055771;28;20458;-78
2023/07/23 10:10:00;;;;;;;8.75;6.30;;;;;;;;;;5056447;28;20124;-79
2023/07/23 10:12:26;;;;;;;8.63;5.75;;;;;;;;;;5056083;28;20122;-78
2023/07/23 10:14:52;;;;;;;9.88;6.10;;;;;;;;;;5056259;28;20487;-79
2023/07/23 10:17:19;;;;;;;11.20;6.22;;;;;;;;;;5056516;28;20041;-78
2023/07/23 10:19:45;;;;;;;7.93;5.40;;;;;;;;;;5053006;28;20049;-78
2023/07/23 10:22:12;;;;;;;7.53;5.18;;;;;;;;;;5054932;28;20041;-80
2023/07/23 10:24:39;;;;;;;7.93;4.85;;;;;;;;;;5055587;28;20090;-79
2023/07/23 10:27:12;;;;;;;8.18;5.18;;;;;;;;;;5056426;28;20128;-78
2023/07/23 10:29:38;;;;;;;8.00;5.10;;;;;;;;;;5055922;28;20049;-79
2023/07/23 10:32:23;;;;;;;8.00;4.60;;;;;;;;;;5056119;28;20076;-79
2023/07/23 10:34:49;;;;;;;7.03;4.75;;;;;;;;;;5055699;28;20041;-78
2023/07/23 10:37:20;;;;;;;6.45;4.18;;;;;;;;;;5055567;28;20053;-78
2023/07/23 10:39:47;;;;;;;7.47;4.53;;;;;;;;;;5055746;28;20517;-78
2023/07/23 10:42:28;;;;;;;6.70;4.57;;;;;;;;;;5055470;28;20665;-78
2023/07/23 10:45:14;;;;;;;6.97;4.65;;;;;;;;;;5055337;28;20136;-79
2023/07/23 10:47:46;;;;;;;8.65;4.90;;;;;;;;;;5054188;28;20052;-79
2023/07/23 10:50:13;;;;;;;6.70;4.53;;;;;;;;;;5054234;28;20041;-78
2023/07/23 10:52:39;;;;;;;7.70;5.20;;;;;;;;;;5055190;28;20126;-78
2023/07/23 10:55:06;;;;;;;8.65;4.90;;;;;;;;;;5052560;28;20077;-79
2023/07/23 10:57:32;;;;;;;7.13;5.05;;;;;;;;;;5053246;28;20041;-79
2023/07/23 10:59:58;;;;;;;8.25;5.60;;;;;;;;;;5054289;28;20102;-78
2023/07/23 11:02:25;;;;;;;8.13;5.03;;;;;;;;;;5054819;28;20063;-78
2023/07/23 11:04:52;;;;;;;7.78;5.07;;;;;;;;;;5036159;28;20399;-78
2023/07/23 11:07:28;;;;;;;7.55;5.30;;;;;;;;;;5055092;28;20041;-78
2023/07/23 11:09:57;;;;;;;8.95;5.60;;;;;;;;;;5054928;28;20124;-78
2023/07/23 11:12:24;;;;;;;10.45;5.75;;;;;;;;;;5054271;28;20049;-78
2023/07/23 11:14:52;;;;;;;8.57;5.63;;;;;;;;;;5055333;28;20057;-77
2023/07/23 11:17:18;;;;;;;9.05;5.30;;;;;;;;;;5055658;28;20052;-78
2023/07/23 11:19:45;;;;;;;11.15;6.95;;;;;;;;;;5048112;28;20041;-79
2023/07/23 11:22:15;;;;;;;9.88;5.68;;;;;;;;;;5054620;28;20116;-78
2023/07/23 11:24:41;;;;;;;9.93;6.10;;;;;;;;;;5053572;28;20049;-78
2023/07/23 11:27:12;;;;;;;7.93;5.70;;;;;;;;;;5054122;28;20495;-79
2023/07/23 11:29:38;;;;;;;11.00;5.38;;;;;;;;;;5054290;28;20118;-78
2023/07/23 11:32:05;;;;;;;8.65;5.60;;;;;;;;;;5053260;28;20057;-78
2023/07/23 11:34:32;;;;;;;9.27;6.03;;;;;;;;;;5052700;28;20052;-77
2023/07/23 11:36:58;;;;;;;8.32;6.20;;;;;;;;;;5053511;28;20057;-78
2023/07/23 11:39:24;;;;;;;9.00;5.85;;;;;;;;;;5035687;28;20052;-79
2023/07/23 11:41:51;;;;;;;10.48;6.47;;;;;;;;;;5053241;28;20053;-78
2023/07/23 11:44:17;;;;;;;9.38;6.20;;;;;;;;;;5052935;28;20060;-78
2023/07/23 11:46:43;;;;;;;12.82;6.60;;;;;;;;;;5053454;28;20410;-78
2023/07/23 11:49:11;;;;;;;10.02;5.93;;;;;;;;;;5051487;28;20052;-77
2023/07/23 11:51:37;;;;;;;8.90;5.93;;;;;;;;;;5052855;28;20053;-77
2023/07/23 11:54:07;;;;;;;10.57;6.70;;;;;;;;;;5052566;28;20045;-77
2023/07/23 11:56:45;;;;;;;8.82;6.03;;;;;;;;;;5052656;28;20107;-78
2023/07/23 11:59:13;;;;;;;10.02;6.40;;;;;;;;;;5035074;28;20053;-78
2023/07/23 12:01:39;;;;;;;9.93;6.50;;;;;;;;;;5034557;28;20508;-78
2023/07/23 12:04:06;;;;;;;9.60;6.07;;;;;;;;;;5051663;28;20048;-78
2023/07/23 12:06:33;;;;;;;11.13;5.88;;;;;;;;;;5034644;28;20055;-78
2023/07/23 12:09:00;;;;;;;9.45;6.43;;;;;;;;;;5052406;28;20072;-78
2023/07/23 12:11:31;;;;;;;10.13;6.57;;;;;;;;;;5052633;28;20114;-77
2023/07/23 12:13:59;;;;;;;8.48;5.72;;;;;;;;;;5034356;28;20444;-78
2023/07/23 12:16:40;;;;;;;8.82;6.03;;;;;;;;;;5052380;28;20399;-78
2023/07/23 12:19:17;;;;;;;7.75;5.25;;;;;;;;;;5051508;28;20076;-78
2023/07/23 12:21:44;;;;;;;9.07;6.05;;;;;;;;;;5052671;28;20523;-78
2023/07/23 12:24:13;;;;;;;8.27;5.75;;;;;;;;;;5052433;28;20135;-78
2023/07/23 12:26:39;;;;;;;8.60;6.10;;;;;;;;;;5053394;28;20049;-78
2023/07/23 12:29:05;;;;;;;8.00;5.43;;;;;;;;;;5055640;28;20060;-78
2023/07/23 12:31:31;;;;;;;11.27;5.80;;;;;;;;;;5053858;28;20556;-78
2023/07/23 12:33:57;;;;;;;10.00;5.57;;;;;;;;;;5036672;28;20060;-78
2023/07/23 12:36:24;;;;;;;7.53;5.00;;;;;;;;;;5015314;28;20052;-78
2023/07/23 12:38:50;;;;;;;6.88;4.65;;;;;;;;;;5034680;28;20054;-78
2023/07/23 12:41:17;;;;;;;6.85;4.60;;;;;;;;;;5045010;28;20438;-79
2023/07/23 12:43:43;;;;;;;8.82;5.13;;;;;;;;;;5056711;28;20045;-78
2023/07/23 12:46:09;;;;;;;7.40;4.90;;;;;;;;;;5059030;28;20064;-79
2023/07/23 12:48:35;;;;;;;7.57;4.53;;;;;;;;;;5058552;28;20124;-78
2023/07/23 12:51:01;;;;;;;7.18;4.30;;;;;;;;;;5057801;28;20037;-78
2023/07/23 12:53:27;;;;;;;6.65;4.15;;;;;;;;;;5058572;28;20053;-78
2023/07/23 12:55:53;;;;;;;6.50;3.92;;;;;;;;;;5058564;28;20069;-78
2023/07/23 12:58:19;;;;;;;6.15;3.80;;;;;;;;;;5059033;28;20045;-78
2023/07/23 13:00:45;;;;;;;9.80;3.95;;;;;;;;;;5056662;28;20064;-79
2023/07/23 13:03:11;;;;;;;6.47;3.63;;;;;;;;;;5057318;28;20395;-79
2023/07/23 13:05:37;;;;;;;7.20;4.10;;;;;;;;;;5055465;28;20068;-79
2023/07/23 13:08:03;;;;;;;7.22;4.00;;;;;;;;;;5054396;28;20045;-79
2023/07/23 13:10:29;;;;;;;7.10;3.78;;;;;;;;;;5038813;28;20053;-79
2023/07/23 13:12:56;;;;;;;6.57;3.83;;;;;;;;;;5058145;28;20063;-78
2023/07/23 13:15:22;;;;;;;7.07;3.65;;;;;;;;;;5058559;28;20491;-78
2023/07/23 13:17:48;;;;;;;7.22;4.03;;;;;;;;;;5059615;28;20045;-79
2023/07/23 13:20:14;;;;;;;6.95;3.80;;;;;;;;;;5059545;28;20053;-79
2023/07/23 13:22:40;;;;;;;6.35;3.85;;;;;;;;;;5058468;28;20403;-79
2023/07/23 13:25:07;;;;;;;6.50;4.10;;;;;;;;;;5056971;28;20045;-79
2023/07/23 13:27:33;;;;;;;6.05;3.72;;;;;;;;;;5045314;28;20053;-79
2023/07/23 13:29:59;;;;;;;7.05;4.25;;;;;;;;;;5037732;28;20041;-77
2023/07/23 13:32:25;;;;;;;7.65;5.15;;;;;;;;;;5041627;28;20095;-78
2023/07/23 13:34:51;;;;;;;7.65;5.32;;;;;;;;;;5056325;28;20056;-78
2023/07/23 13:37:17;;;;;;;7.93;5.00;;;;;;;;;;5056615;28;20051;-78
2023/07/23 13:39:46;;;;;;;7.82;5.35;;;;;;;;;;5051633;28;20060;-78
2023/07/23 13:42:12;;;;;;;8.48;6.05;;;;;;;;;;5037828;28;20037;-77
2023/07/23 13:44:38;;;;;;;8.65;5.68;;;;;;;;;;5056751;28;20061;-77
2023/07/23 13:47:04;;;;;;;9.32;5.78;;;;;;;;;;5056434;28;20136;-77
2023/07/23 13:49:30;;;;;;;8.25;6.00;;;;;;;;;;5055586;28;20041;-79
2023/07/23 13:51:56;;;;;;;9.40;6.30;;;;;;;;;;5056792;28;20049;-78
2023/07/23 13:54:22;;;;;;;8.82;6.25;;;;;;;;;;5054906;28;20041;-78
2023/07/23 13:56:48;;;;;;;13.23;6.80;;;;;;;;;;5055754;28;20479;-78
2023/07/23 13:59:14;;;;;;;8.82;6.65;;;;;;;;;;5057377;28;20056;-79
2023/07/23 14:01:40;;;;;;;8.70;6.82;;;;;;;;;;5056692;28;20052;-78
2023/07/23 14:04:06;;;;;;;11.40;6.40;;;;;;;;;;5051941;28;20049;-78
2023/07/23 14:06:33;;;;;;;9.05;6.95;;;;;;;;;;5056678;28;20051;-78
2023/07/23 14:08:59;;;;;;;9.38;7.20;;;;;;;;;;5056686;28;20053;-78
2023/07/23 14:11:25;;;;;;;10.27;7.00;;;;;;;;;;5055965;28;20095;-78
2023/07/23 14:13:51;;;;;;;9.20;7.30;;;;;;;;;;5056422;28;20122;-78
2023/07/23 14:16:18;;;;;;;8.90;7.10;;;;;;;;;;5056118;28;20049;-77
2023/07/23 14:18:44;;;;;;;8.32;6.80;;;;;;;;;;5054965;28;20680;-77
2023/07/23 14:21:10;;;;;;;9.70;6.75;;;;;;;;;;5037841;28;20049;-78
2023/07/23 14:23:36;;;;;;;8.68;7.00;;;;;;;;;;5056193;28;20045;-77
2023/07/23 14:26:02;;;;;;;8.35;6.72;;;;;;;;;;5056305;28;20041;-78
2023/07/23 14:28:28;;;;;;;11.23;7.40;;;;;;;;;;5055994;28;20049;-78